sensor_id;sensor_type;location;lat;lon;timestamp;P1;durP1;ratioP1;P2;durP2;ratioP2
8225;SDS011;4154;48.810;9.012;2023-06-26T00:02:06;7.95;;;7.25;;
8225;SDS011;4154;48.810;9.012;2023-06-26T00:04:32;8.18;;;7.38;;
8225;SDS011;4154;48.810;9.012;2023-06-26T00:06:58;8.10;;;7.30;;
8225;SDS011;4154;48.810;9.012;2023-06-26T00:09:24;8.20;;;7.47;;
8225;SDS011;4154;48.810;9.012;2023-06-26T00:11:50;8.20;;;7.40;;
8225;SDS011;4154;48.810;9.012;2023-06-26T00:14:17;7.90;;;7.10;;
8225;SDS011;4154;48.810;9.012;2023-06-26T00:16:46;7.75;;;7.05;;
8225;SDS011;4154;48.810;9.012;2023-06-26T00:19:14;8.57;;;7.22;;
8225;SDS011;4154;48.810;9.012;2023-06-26T00:21:40;8.15;;;7.45;;
8225;SDS011;4154;48.810;9.012;2023-06-26T00:24:11;8.50;;;7.60;;
8225;SDS011;4154;48.810;9.012;2023-06-26T00:26:38;7.90;;;7.10;;
8225;SDS011;4154;48.810;9.012;2023-06-26T00:29:03;9.75;;;7.60;;
8225;SDS011;4154;48.810;9.012;2023-06-26T00:31:30;7.90;;;7.20;;
8225;SDS011;4154;48.810;9.012;2023-06-26T00:33:55;7.68;;;6.97;;
8225;SDS011;4154;48.810;9.012;2023-06-26T00:36:21;7.20;;;6.60;;
8225;SDS011;4154;48.810;9.012;2023-06-26T00:38:48;7.72;;;7.00;;
8225;SDS011;4154;48.810;9.012;2023-06-26T00:41:15;8.38;;;7.35;;
8225;SDS011;4154;48.810;9.012;2023-06-26T00:43:40;7.35;;;6.65;;
8225;SDS011;4154;48.810;9.012;2023-06-26T00:46:09;7.53;;;6.82;;
8225;SDS011;4154;48.810;9.012;2023-06-26T00:48:37;8.43;;;7.50;;
8225;SDS011;4154;48.810;9.012;2023-06-26T00:51:04;8.05;;;7.28;;
8225;SDS011;4154;48.810;9.012;2023-06-26T00:53:31;8.00;;;7.20;;
8225;SDS011;4154;48.810;9.012;2023-06-26T00:55:57;7.93;;;7.13;;
8225;SDS011;4154;48.810;9.012;2023-06-26T00:58:25;8.10;;;7.28;;
8225;SDS011;4154;48.810;9.012;2023-06-26T01:00:51;8.07;;;7.30;;
8225;SDS011;4154;48.810;9.012;2023-06-26T01:03:17;8.80;;;6.97;;
8225;SDS011;4154;48.810;9.012;2023-06-26T01:05:48;8.48;;;7.50;;
8225;SDS011;4154;48.810;9.012;2023-06-26T01:08:16;8.23;;;7.43;;
8225;SDS011;4154;48.810;9.012;2023-06-26T01:10:43;7.90;;;7.15;;
8225;SDS011;4154;48.810;9.012;2023-06-26T01:13:11;8.45;;;7.50;;
8225;SDS011;4154;48.810;9.012;2023-06-26T01:15:40;8.18;;;7.40;;
8225;SDS011;4154;48.810;9.012;2023-06-26T01:18:06;8.02;;;7.30;;
8225;SDS011;4154;48.810;9.012;2023-06-26T01:20:32;8.52;;;7.22;;
8225;SDS011;4154;48.810;9.012;2023-06-26T01:28:37;8.18;;;7.38;;
8225;SDS011;4154;48.810;9.012;2023-06-26T01:31:07;9.98;;;6.90;;
8225;SDS011;4154;48.810;9.012;2023-06-26T01:33:33;7.95;;;7.25;;
8225;SDS011;4154;48.810;9.012;2023-06-26T01:36:00;7.93;;;7.15;;
8225;SDS011;4154;48.810;9.012;2023-06-26T01:38:26;7.80;;;7.00;;
8225;SDS011;4154;48.810;9.012;2023-06-26T01:40:52;7.78;;;6.97;;
8225;SDS011;4154;48.810;9.012;2023-06-26T01:46:34;8.02;;;7.32;;
8225;SDS011;4154;48.810;9.012;2023-06-26T01:55:05;7.85;;;7.05;;
8225;SDS011;4154;48.810;9.012;2023-06-26T01:57:47;7.45;;;6.75;;
8225;SDS011;4154;48.810;9.012;2023-06-26T02:00:15;7.40;;;6.70;;
8225;SDS011;4154;48.810;9.012;2023-06-26T02:02:44;7.70;;;6.93;;
8225;SDS011;4154;48.810;9.012;2023-06-26T02:05:11;8.00;;;7.20;;
8225;SDS011;4154;48.810;9.012;2023-06-26T02:07:37;8.23;;;7.13;;
8225;SDS011;4154;48.810;9.012;2023-06-26T02:10:04;7.40;;;6.70;;
8225;SDS011;4154;48.810;9.012;2023-06-26T02:12:30;6.80;;;6.20;;
8225;SDS011;4154;48.810;9.012;2023-06-26T02:14:56;7.25;;;6.55;;
8225;SDS011;4154;48.810;9.012;2023-06-26T02:17:21;7.30;;;6.57;;
8225;SDS011;4154;48.810;9.012;2023-06-26T02:19:47;7.55;;;6.85;;
8225;SDS011;4154;48.810;9.012;2023-06-26T02:22:16;8.25;;;7.38;;
8225;SDS011;4154;48.810;9.012;2023-06-26T02:24:42;7.78;;;7.07;;
8225;SDS011;4154;48.810;9.012;2023-06-26T02:27:09;7.57;;;6.88;;
8225;SDS011;4154;48.810;9.012;2023-06-26T02:29:35;8.50;;;7.20;;
8225;SDS011;4154;48.810;9.012;2023-06-26T02:32:01;7.90;;;7.10;;
8225;SDS011;4154;48.810;9.012;2023-06-26T02:34:27;8.10;;;7.25;;
8225;SDS011;4154;48.810;9.012;2023-06-26T02:36:55;8.10;;;7.05;;
8225;SDS011;4154;48.810;9.012;2023-06-26T02:39:21;8.13;;;7.32;;
8225;SDS011;4154;48.810;9.012;2023-06-26T02:41:47;7.32;;;6.63;;
8225;SDS011;4154;48.810;9.012;2023-06-26T02:44:13;8.30;;;7.50;;
8225;SDS011;4154;48.810;9.012;2023-06-26T02:46:39;8.35;;;7.30;;
8225;SDS011;4154;48.810;9.012;2023-06-26T02:49:05;8.43;;;7.63;;
8225;SDS011;4154;48.810;9.012;2023-06-26T02:51:32;8.35;;;7.10;;
8225;SDS011;4154;48.810;9.012;2023-06-26T02:53:58;8.40;;;7.07;;
8225;SDS011;4154;48.810;9.012;2023-06-26T02:56:25;7.70;;;7.00;;
8225;SDS011;4154;48.810;9.012;2023-06-26T02:58:55;7.93;;;7.22;;
8225;SDS011;4154;48.810;9.012;2023-06-26T03:01:21;7.70;;;7.00;;
8225;SDS011;4154;48.810;9.012;2023-06-26T03:03:47;7.93;;;7.22;;
8225;SDS011;4154;48.810;9.012;2023-06-26T03:06:13;7.93;;;7.22;;
8225;SDS011;4154;48.810;9.012;2023-06-26T03:08:40;7.68;;;6.97;;
8225;SDS011;4154;48.810;9.012;2023-06-26T03:11:07;7.43;;;6.72;;
8225;SDS011;4154;48.810;9.012;2023-06-26T03:13:34;7.85;;;7.05;;
8225;SDS011;4154;48.810;9.012;2023-06-26T03:16:01;8.23;;;7.18;;
8225;SDS011;4154;48.810;9.012;2023-06-26T03:18:27;8.27;;;7.05;;
8225;SDS011;4154;48.810;9.012;2023-06-26T03:20:54;8.48;;;7.32;;
8225;SDS011;4154;48.810;9.012;2023-06-26T03:23:20;8.10;;;7.30;;
8225;SDS011;4154;48.810;9.012;2023-06-26T03:25:47;7.88;;;7.18;;
8225;SDS011;4154;48.810;9.012;2023-06-26T03:28:14;7.80;;;7.10;;
8225;SDS011;4154;48.810;9.012;2023-06-26T03:30:40;8.48;;;7.15;;
8225;SDS011;4154;48.810;9.012;2023-06-26T03:33:06;8.15;;;7.35;;
8225;SDS011;4154;48.810;9.012;2023-06-26T03:35:32;8.15;;;7.35;;
8225;SDS011;4154;48.810;9.012;2023-06-26T03:37:58;8.15;;;7.38;;
8225;SDS011;4154;48.810;9.012;2023-06-26T03:40:25;9.38;;;7.22;;
8225;SDS011;4154;48.810;9.012;2023-06-26T03:42:52;7.88;;;6.70;;
8225;SDS011;4154;48.810;9.012;2023-06-26T03:45:17;8.23;;;7.53;;
8225;SDS011;4154;48.810;9.012;2023-06-26T03:47:44;7.70;;;7.00;;
8225;SDS011;4154;48.810;9.012;2023-06-26T03:50:12;7.88;;;7.15;;
8225;SDS011;4154;48.810;9.012;2023-06-26T03:52:38;7.82;;;7.10;;
8225;SDS011;4154;48.810;9.012;2023-06-26T03:55:03;8.65;;;7.28;;
8225;SDS011;4154;48.810;9.012;2023-06-26T03:57:29;8.00;;;7.22;;
8225;SDS011;4154;48.810;9.012;2023-06-26T03:59:55;7.30;;;6.60;;
8225;SDS011;4154;48.810;9.012;2023-06-26T04:02:21;7.78;;;7.07;;
8225;SDS011;4154;48.810;9.012;2023-06-26T04:04:48;8.25;;;6.97;;
8225;SDS011;4154;48.810;9.012;2023-06-26T04:07:13;7.60;;;6.90;;
8225;SDS011;4154;48.810;9.012;2023-06-26T04:09:39;7.90;;;7.03;;
8225;SDS011;4154;48.810;9.012;2023-06-26T04:12:05;7.70;;;7.00;;
8225;SDS011;4154;48.810;9.012;2023-06-26T04:14:31;7.80;;;7.10;;
8225;SDS011;4154;48.810;9.012;2023-06-26T04:16:58;7.75;;;6.88;;
8225;SDS011;4154;48.810;9.012;2023-06-26T04:19:26;8.15;;;7.30;;
8225;SDS011;4154;48.810;9.012;2023-06-26T04:21:52;8.35;;;7.47;;
8225;SDS011;4154;48.810;9.012;2023-06-26T04:24:18;8.38;;;7.55;;
8225;SDS011;4154;48.810;9.012;2023-06-26T04:26:44;7.30;;;6.60;;
8225;SDS011;4154;48.810;9.012;2023-06-26T04:29:10;8.07;;;7.28;;
8225;SDS011;4154;48.810;9.012;2023-06-26T04:31:36;7.72;;;6.65;;
8225;SDS011;4154;48.810;9.012;2023-06-26T04:34:04;7.72;;;6.93;;
8225;SDS011;4154;48.810;9.012;2023-06-26T04:36:29;8.18;;;7.00;;
8225;SDS011;4154;48.810;9.012;2023-06-26T04:38:56;7.43;;;6.72;;
8225;SDS011;4154;48.810;9.012;2023-06-26T04:41:23;7.53;;;6.82;;
8225;SDS011;4154;48.810;9.012;2023-06-26T04:43:49;7.50;;;6.80;;
8225;SDS011;4154;48.810;9.012;2023-06-26T04:46:15;7.60;;;6.90;;
8225;SDS011;4154;48.810;9.012;2023-06-26T04:48:41;7.20;;;6.57;;
8225;SDS011;4154;48.810;9.012;2023-06-26T04:51:09;7.43;;;6.72;;
8225;SDS011;4154;48.810;9.012;2023-06-26T04:53:36;7.72;;;6.55;;
8225;SDS011;4154;48.810;9.012;2023-06-26T04:56:02;7.30;;;6.45;;
8225;SDS011;4154;48.810;9.012;2023-06-26T04:58:28;8.23;;;7.00;;
8225;SDS011;4154;48.810;9.012;2023-06-26T05:00:54;7.30;;;6.60;;
8225;SDS011;4154;48.810;9.012;2023-06-26T05:03:20;7.32;;;6.55;;
8225;SDS011;4154;48.810;9.012;2023-06-26T05:05:46;7.55;;;6.85;;
8225;SDS011;4154;48.810;9.012;2023-06-26T05:08:16;9.00;;;6.68;;
8225;SDS011;4154;48.810;9.012;2023-06-26T05:10:43;7.55;;;6.85;;
8225;SDS011;4154;48.810;9.012;2023-06-26T05:13:09;6.88;;;6.20;;
8225;SDS011;4154;48.810;9.012;2023-06-26T05:15:36;7.15;;;6.55;;
8225;SDS011;4154;48.810;9.012;2023-06-26T05:18:02;7.50;;;6.80;;
8225;SDS011;4154;48.810;9.012;2023-06-26T05:20:28;6.90;;;6.30;;
8225;SDS011;4154;48.810;9.012;2023-06-26T05:22:54;7.25;;;6.65;;
8225;SDS011;4154;48.810;9.012;2023-06-26T05:25:20;7.45;;;6.75;;
8225;SDS011;4154;48.810;9.012;2023-06-26T05:27:48;6.53;;;5.88;;
8225;SDS011;4154;48.810;9.012;2023-06-26T05:30:14;7.05;;;6.30;;
8225;SDS011;4154;48.810;9.012;2023-06-26T05:32:40;6.70;;;6.10;;
8225;SDS011;4154;48.810;9.012;2023-06-26T05:35:08;6.88;;;6.28;;
8225;SDS011;4154;48.810;9.012;2023-06-26T05:37:35;8.43;;;6.53;;
8225;SDS011;4154;48.810;9.012;2023-06-26T05:40:01;6.60;;;6.00;;
8225;SDS011;4154;48.810;9.012;2023-06-26T05:42:29;6.65;;;6.05;;
8225;SDS011;4154;48.810;9.012;2023-06-26T05:44:55;7.60;;;6.03;;
8225;SDS011;4154;48.810;9.012;2023-06-26T05:47:21;6.60;;;6.00;;
8225;SDS011;4154;48.810;9.012;2023-06-26T05:49:47;8.10;;;5.85;;
8225;SDS011;4154;48.810;9.012;2023-06-26T05:52:13;7.22;;;6.40;;
8225;SDS011;4154;48.810;9.012;2023-06-26T05:54:39;6.53;;;5.93;;
8225;SDS011;4154;48.810;9.012;2023-06-26T05:57:06;6.45;;;5.82;;
8225;SDS011;4154;48.810;9.012;2023-06-26T05:59:32;6.43;;;5.80;;
8225;SDS011;4154;48.810;9.012;2023-06-26T06:01:59;6.85;;;6.25;;
8225;SDS011;4154;48.810;9.012;2023-06-26T06:04:25;7.72;;;6.53;;
8225;SDS011;4154;48.810;9.012;2023-06-26T06:06:51;6.25;;;5.60;;
8225;SDS011;4154;48.810;9.012;2023-06-26T06:09:17;7.68;;;6.15;;
8225;SDS011;4154;48.810;9.012;2023-06-26T06:11:43;6.57;;;5.97;;
8225;SDS011;4154;48.810;9.012;2023-06-26T06:14:09;6.30;;;5.63;;
8225;SDS011;4154;48.810;9.012;2023-06-26T06:16:35;6.72;;;6.03;;
8225;SDS011;4154;48.810;9.012;2023-06-26T06:19:01;7.43;;;6.40;;
8225;SDS011;4154;48.810;9.012;2023-06-26T06:21:28;6.57;;;5.85;;
8225;SDS011;4154;48.810;9.012;2023-06-26T06:23:54;6.28;;;5.60;;
8225;SDS011;4154;48.810;9.012;2023-06-26T06:26:19;9.52;;;5.70;;
8225;SDS011;4154;48.810;9.012;2023-06-26T06:28:46;7.70;;;5.85;;
8225;SDS011;4154;48.810;9.012;2023-06-26T06:31:11;6.80;;;5.72;;
8225;SDS011;4154;48.810;9.012;2023-06-26T06:33:37;6.22;;;5.63;;
8225;SDS011;4154;48.810;9.012;2023-06-26T06:36:03;7.22;;;6.05;;
8225;SDS011;4154;48.810;9.012;2023-06-26T06:38:29;10.27;;;6.25;;
8225;SDS011;4154;48.810;9.012;2023-06-26T06:40:55;6.30;;;5.70;;
8225;SDS011;4154;48.810;9.012;2023-06-26T06:43:21;6.30;;;5.80;;
8225;SDS011;4154;48.810;9.012;2023-06-26T06:45:46;6.63;;;6.03;;
8225;SDS011;4154;48.810;9.012;2023-06-26T06:48:12;6.68;;;6.13;;
8225;SDS011;4154;48.810;9.012;2023-06-26T06:50:38;7.20;;;6.20;;
8225;SDS011;4154;48.810;9.012;2023-06-26T06:53:04;6.57;;;5.93;;
8225;SDS011;4154;48.810;9.012;2023-06-26T06:55:30;6.00;;;5.40;;
8225;SDS011;4154;48.810;9.012;2023-06-26T06:57:55;6.30;;;5.70;;
8225;SDS011;4154;48.810;9.012;2023-06-26T07:00:21;6.22;;;5.50;;
8225;SDS011;4154;48.810;9.012;2023-06-26T07:02:47;7.47;;;5.80;;
8225;SDS011;4154;48.810;9.012;2023-06-26T07:05:13;6.25;;;5.57;;
8225;SDS011;4154;48.810;9.012;2023-06-26T07:07:39;6.13;;;5.47;;
8225;SDS011;4154;48.810;9.012;2023-06-26T07:10:06;6.55;;;5.80;;
8225;SDS011;4154;48.810;9.012;2023-06-26T07:12:34;6.68;;;6.03;;
8225;SDS011;4154;48.810;9.012;2023-06-26T07:15:01;7.22;;;5.78;;
8225;SDS011;4154;48.810;9.012;2023-06-26T07:17:29;6.38;;;5.78;;
8225;SDS011;4154;48.810;9.012;2023-06-26T07:19:56;6.50;;;5.80;;
8225;SDS011;4154;48.810;9.012;2023-06-26T07:22:22;5.80;;;5.18;;
8225;SDS011;4154;48.810;9.012;2023-06-26T07:24:48;5.75;;;5.15;;
8225;SDS011;4154;48.810;9.012;2023-06-26T07:27:18;5.07;;;4.68;;
8225;SDS011;4154;48.810;9.012;2023-06-26T07:29:44;5.53;;;5.03;;
8225;SDS011;4154;48.810;9.012;2023-06-26T07:32:10;6.22;;;4.97;;
8225;SDS011;4154;48.810;9.012;2023-06-26T07:34:36;5.97;;;4.70;;
8225;SDS011;4154;48.810;9.012;2023-06-26T07:37:02;4.75;;;4.35;;
8225;SDS011;4154;48.810;9.012;2023-06-26T07:39:28;4.72;;;4.32;;
8225;SDS011;4154;48.810;9.012;2023-06-26T07:41:54;5.07;;;4.68;;
8225;SDS011;4154;48.810;9.012;2023-06-26T07:44:21;5.00;;;4.60;;
8225;SDS011;4154;48.810;9.012;2023-06-26T07:46:47;4.95;;;4.55;;
8225;SDS011;4154;48.810;9.012;2023-06-26T07:49:13;5.03;;;4.35;;
8225;SDS011;4154;48.810;9.012;2023-06-26T07:51:39;4.60;;;4.22;;
8225;SDS011;4154;48.810;9.012;2023-06-26T07:54:04;4.53;;;4.13;;
8225;SDS011;4154;48.810;9.012;2023-06-26T07:56:34;4.65;;;4.25;;
8225;SDS011;4154;48.810;9.012;2023-06-26T07:59:20;4.78;;;4.38;;
8225;SDS011;4154;48.810;9.012;2023-06-26T08:01:48;4.70;;;4.30;;
8225;SDS011;4154;48.810;9.012;2023-06-26T08:04:15;5.38;;;4.20;;
8225;SDS011;4154;48.810;9.012;2023-06-26T08:06:42;4.90;;;4.50;;
8225;SDS011;4154;48.810;9.012;2023-06-26T08:09:08;4.85;;;4.35;;
8225;SDS011;4154;48.810;9.012;2023-06-26T08:11:34;5.10;;;4.68;;
8225;SDS011;4154;48.810;9.012;2023-06-26T08:14:00;6.15;;;4.57;;
8225;SDS011;4154;48.810;9.012;2023-06-26T08:16:25;5.10;;;4.60;;
8225;SDS011;4154;48.810;9.012;2023-06-26T08:18:51;4.78;;;4.38;;
8225;SDS011;4154;48.810;9.012;2023-06-26T08:21:17;5.13;;;4.45;;
8225;SDS011;4154;48.810;9.012;2023-06-26T08:23:42;4.72;;;4.32;;
8225;SDS011;4154;48.810;9.012;2023-06-26T08:26:08;5.57;;;5.07;;
8225;SDS011;4154;48.810;9.012;2023-06-26T08:28:34;5.07;;;4.68;;
8225;SDS011;4154;48.810;9.012;2023-06-26T08:31:00;5.18;;;4.68;;
8225;SDS011;4154;48.810;9.012;2023-06-26T08:33:26;6.10;;;4.43;;
8225;SDS011;4154;48.810;9.012;2023-06-26T08:35:52;5.00;;;4.60;;
8225;SDS011;4154;48.810;9.012;2023-06-26T08:38:18;4.90;;;4.50;;
8225;SDS011;4154;48.810;9.012;2023-06-26T08:40:46;6.47;;;4.88;;
8225;SDS011;4154;48.810;9.012;2023-06-26T08:43:12;5.47;;;4.97;;
8225;SDS011;4154;48.810;9.012;2023-06-26T08:45:38;4.97;;;4.57;;
8225;SDS011;4154;48.810;9.012;2023-06-26T08:48:04;5.00;;;4.60;;
8225;SDS011;4154;48.810;9.012;2023-06-26T08:50:34;5.40;;;4.90;;
8225;SDS011;4154;48.810;9.012;2023-06-26T08:53:21;5.10;;;4.60;;
8225;SDS011;4154;48.810;9.012;2023-06-26T08:55:58;4.95;;;4.47;;
8225;SDS011;4154;48.810;9.012;2023-06-26T08:58:25;5.05;;;4.65;;
8225;SDS011;4154;48.810;9.012;2023-06-26T09:00:51;4.75;;;4.45;;
8225;SDS011;4154;48.810;9.012;2023-06-26T09:03:18;5.15;;;4.65;;
8225;SDS011;4154;48.810;9.012;2023-06-26T09:05:44;5.35;;;4.85;;
8225;SDS011;4154;48.810;9.012;2023-06-26T09:08:10;5.28;;;4.88;;
8225;SDS011;4154;48.810;9.012;2023-06-26T09:10:38;5.75;;;5.28;;
8225;SDS011;4154;48.810;9.012;2023-06-26T09:13:04;5.28;;;4.88;;
8225;SDS011;4154;48.810;9.012;2023-06-26T09:16:03;5.43;;;4.85;;
8225;SDS011;4154;48.810;9.012;2023-06-26T09:18:22;5.68;;;5.13;;
8225;SDS011;4154;48.810;9.012;2023-06-26T09:20:49;5.68;;;5.28;;
8225;SDS011;4154;48.810;9.012;2023-06-26T09:23:15;5.95;;;4.63;;
8225;SDS011;4154;48.810;9.012;2023-06-26T09:25:42;5.47;;;4.97;;
8225;SDS011;4154;48.810;9.012;2023-06-26T09:28:09;5.40;;;4.90;;
8225;SDS011;4154;48.810;9.012;2023-06-26T09:30:35;5.55;;;5.07;;
8225;SDS011;4154;48.810;9.012;2023-06-26T09:33:17;5.63;;;5.10;;
8225;SDS011;4154;48.810;9.012;2023-06-26T09:35:45;5.53;;;5.03;;
8225;SDS011;4154;48.810;9.012;2023-06-26T09:38:13;5.70;;;5.20;;
8225;SDS011;4154;48.810;9.012;2023-06-26T09:40:40;5.68;;;4.97;;
8225;SDS011;4154;48.810;9.012;2023-06-26T09:43:09;5.32;;;4.85;;
8225;SDS011;4154;48.810;9.012;2023-06-26T09:45:39;5.85;;;5.28;;
8225;SDS011;4154;48.810;9.012;2023-06-26T09:48:05;5.60;;;5.15;;
8225;SDS011;4154;48.810;9.012;2023-06-26T09:50:36;5.78;;;5.28;;
8225;SDS011;4154;48.810;9.012;2023-06-26T09:53:07;6.05;;;5.18;;
8225;SDS011;4154;48.810;9.012;2023-06-26T09:55:35;6.80;;;5.60;;
8225;SDS011;4154;48.810;9.012;2023-06-26T09:58:02;6.03;;;5.53;;
8225;SDS011;4154;48.810;9.012;2023-06-26T10:00:29;6.05;;;5.45;;
8225;SDS011;4154;48.810;9.012;2023-06-26T10:02:56;6.60;;;5.88;;
8225;SDS011;4154;48.810;9.012;2023-06-26T10:05:23;6.22;;;5.72;;
8225;SDS011;4154;48.810;9.012;2023-06-26T10:07:49;8.15;;;6.22;;
8225;SDS011;4154;48.810;9.012;2023-06-26T10:10:16;6.70;;;6.20;;
8225;SDS011;4154;48.810;9.012;2023-06-26T10:12:42;6.32;;;5.72;;
8225;SDS011;4154;48.810;9.012;2023-06-26T10:15:13;6.53;;;5.70;;
8225;SDS011;4154;48.810;9.012;2023-06-26T10:17:41;6.97;;;6.28;;
8225;SDS011;4154;48.810;9.012;2023-06-26T10:20:09;6.45;;;5.93;;
8225;SDS011;4154;48.810;9.012;2023-06-26T10:22:44;6.10;;;5.60;;
8225;SDS011;4154;48.810;9.012;2023-06-26T10:25:12;6.97;;;6.25;;
8225;SDS011;4154;48.810;9.012;2023-06-26T10:27:59;7.72;;;5.70;;
8225;SDS011;4154;48.810;9.012;2023-06-26T10:30:29;7.55;;;6.45;;
8225;SDS011;4154;48.810;9.012;2023-06-26T10:33:00;9.95;;;6.32;;
8225;SDS011;4154;48.810;9.012;2023-06-26T10:35:27;6.53;;;6.03;;
8225;SDS011;4154;48.810;9.012;2023-06-26T10:37:59;8.10;;;5.88;;
8225;SDS011;4154;48.810;9.012;2023-06-26T10:40:28;8.05;;;6.35;;
8225;SDS011;4154;48.810;9.012;2023-06-26T10:43:11;7.55;;;6.47;;
8225;SDS011;4154;48.810;9.012;2023-06-26T10:48:17;6.80;;;5.90;;
8225;SDS011;4154;48.810;9.012;2023-06-26T10:50:42;7.38;;;6.72;;
8225;SDS011;4154;48.810;9.012;2023-06-26T10:53:15;6.68;;;5.90;;
8225;SDS011;4154;48.810;9.012;2023-06-26T10:55:56;7.22;;;6.47;;
8225;SDS011;4154;48.810;9.012;2023-06-26T11:06:23;8.07;;;6.30;;
8225;SDS011;4154;48.810;9.012;2023-06-26T11:08:50;9.35;;;6.43;;
8225;SDS011;4154;48.810;9.012;2023-06-26T11:11:18;6.97;;;6.28;;
8225;SDS011;4154;48.810;9.012;2023-06-26T11:14:08;6.97;;;6.25;;
8225;SDS011;4154;48.810;9.012;2023-06-26T11:16:34;7.95;;;6.68;;
8225;SDS011;4154;48.810;9.012;2023-06-26T11:19:01;6.50;;;6.00;;
8225;SDS011;4154;48.810;9.012;2023-06-26T11:21:27;6.78;;;6.25;;
8225;SDS011;4154;48.810;9.012;2023-06-26T11:23:53;6.97;;;6.38;;
8225;SDS011;4154;48.810;9.012;2023-06-26T11:26:23;6.45;;;5.95;;
8225;SDS011;4154;48.810;9.012;2023-06-26T11:28:50;6.93;;;6.32;;
8225;SDS011;4154;48.810;9.012;2023-06-26T11:34:08;6.65;;;6.05;;
8225;SDS011;4154;48.810;9.012;2023-06-26T11:36:37;6.78;;;6.18;;
8225;SDS011;4154;48.810;9.012;2023-06-26T11:39:11;8.35;;;6.40;;
8225;SDS011;4154;48.810;9.012;2023-06-26T11:41:38;10.48;;;6.20;;
8225;SDS011;4154;48.810;9.012;2023-06-26T11:44:06;6.93;;;6.05;;
8225;SDS011;4154;48.810;9.012;2023-06-26T11:46:34;6.57;;;5.97;;
8225;SDS011;4154;48.810;9.012;2023-06-26T11:49:05;6.82;;;6.20;;
8225;SDS011;4154;48.810;9.012;2023-06-26T11:51:32;6.55;;;5.70;;
8225;SDS011;4154;48.810;9.012;2023-06-26T11:54:00;7.68;;;6.40;;
8225;SDS011;4154;48.810;9.012;2023-06-26T11:56:30;6.35;;;5.75;;
8225;SDS011;4154;48.810;9.012;2023-06-26T11:59:00;6.32;;;5.78;;
8225;SDS011;4154;48.810;9.012;2023-06-26T12:01:33;7.72;;;6.03;;
8225;SDS011;4154;48.810;9.012;2023-06-26T12:04:02;9.15;;;5.93;;
8225;SDS011;4154;48.810;9.012;2023-06-26T12:06:34;6.82;;;6.22;;
8225;SDS011;4154;48.810;9.012;2023-06-26T12:09:03;6.90;;;6.13;;
8225;SDS011;4154;48.810;9.012;2023-06-26T12:11:32;6.70;;;5.93;;
8225;SDS011;4154;48.810;9.012;2023-06-26T12:13:59;7.70;;;6.07;;
8225;SDS011;4154;48.810;9.012;2023-06-26T12:16:26;6.63;;;5.95;;
8225;SDS011;4154;48.810;9.012;2023-06-26T12:18:58;7.93;;;5.78;;
8225;SDS011;4154;48.810;9.012;2023-06-26T12:21:44;7.38;;;6.43;;
8225;SDS011;4154;48.810;9.012;2023-06-26T12:24:13;5.93;;;5.43;;
8225;SDS011;4154;48.810;9.012;2023-06-26T12:26:44;6.60;;;6.00;;
8225;SDS011;4154;48.810;9.012;2023-06-26T12:29:14;6.85;;;5.82;;
8225;SDS011;4154;48.810;9.012;2023-06-26T12:31:44;6.38;;;5.78;;
8225;SDS011;4154;48.810;9.012;2023-06-26T12:34:15;6.43;;;5.82;;
8225;SDS011;4154;48.810;9.012;2023-06-26T12:36:45;8.57;;;6.38;;
8225;SDS011;4154;48.810;9.012;2023-06-26T12:39:19;8.45;;;6.32;;
8225;SDS011;4154;48.810;9.012;2023-06-26T12:41:49;6.32;;;5.70;;
8225;SDS011;4154;48.810;9.012;2023-06-26T12:44:29;6.63;;;5.95;;
8225;SDS011;4154;48.810;9.012;2023-06-26T12:47:04;8.35;;;6.15;;
8225;SDS011;4154;48.810;9.012;2023-06-26T12:49:35;8.48;;;6.13;;
8225;SDS011;4154;48.810;9.012;2023-06-26T12:52:06;6.18;;;5.60;;
8225;SDS011;4154;48.810;9.012;2023-06-26T12:54:38;7.35;;;5.40;;
8225;SDS011;4154;48.810;9.012;2023-06-26T12:57:06;6.25;;;5.63;;
8225;SDS011;4154;48.810;9.012;2023-06-26T12:59:33;6.50;;;5.90;;
8225;SDS011;4154;48.810;9.012;2023-06-26T13:02:01;6.13;;;5.55;;
8225;SDS011;4154;48.810;9.012;2023-06-26T13:04:27;6.03;;;5.10;;
8225;SDS011;4154;48.810;9.012;2023-06-26T13:06:53;6.30;;;5.20;;
8225;SDS011;4154;48.810;9.012;2023-06-26T13:09:22;7.70;;;5.22;;
8225;SDS011;4154;48.810;9.012;2023-06-26T13:11:49;7.22;;;5.75;;
8225;SDS011;4154;48.810;9.012;2023-06-26T13:14:16;5.72;;;5.22;;
8225;SDS011;4154;48.810;9.012;2023-06-26T13:16:42;6.10;;;5.50;;
8225;SDS011;4154;48.810;9.012;2023-06-26T13:19:08;7.13;;;5.88;;
8225;SDS011;4154;48.810;9.012;2023-06-26T13:21:35;5.40;;;4.90;;
8225;SDS011;4154;48.810;9.012;2023-06-26T13:24:01;5.68;;;4.93;;
8225;SDS011;4154;48.810;9.012;2023-06-26T13:26:28;5.75;;;5.20;;
8225;SDS011;4154;48.810;9.012;2023-06-26T13:28:54;5.38;;;4.78;;
8225;SDS011;4154;48.810;9.012;2023-06-26T13:31:20;7.20;;;5.07;;
8225;SDS011;4154;48.810;9.012;2023-06-26T13:33:47;7.38;;;5.20;;
8225;SDS011;4154;48.810;9.012;2023-06-26T13:36:18;5.45;;;4.80;;
8225;SDS011;4154;48.810;9.012;2023-06-26T13:38:44;6.63;;;5.03;;
8225;SDS011;4154;48.810;9.012;2023-06-26T13:41:11;6.40;;;5.10;;
8225;SDS011;4154;48.810;9.012;2023-06-26T13:43:37;5.18;;;4.63;;
8225;SDS011;4154;48.810;9.012;2023-06-26T13:46:03;4.85;;;4.07;;
8225;SDS011;4154;48.810;9.012;2023-06-26T13:48:28;5.00;;;4.28;;
8225;SDS011;4154;48.810;9.012;2023-06-26T13:50:54;5.35;;;4.55;;
8225;SDS011;4154;48.810;9.012;2023-06-26T13:53:21;4.75;;;4.32;;
8225;SDS011;4154;48.810;9.012;2023-06-26T13:55:47;4.85;;;4.35;;
8225;SDS011;4154;48.810;9.012;2023-06-26T13:58:13;4.35;;;3.95;;
8225;SDS011;4154;48.810;9.012;2023-06-26T14:00:40;4.47;;;4.07;;
8225;SDS011;4154;48.810;9.012;2023-06-26T14:03:06;6.32;;;4.00;;
8225;SDS011;4154;48.810;9.012;2023-06-26T14:05:35;4.70;;;3.70;;
8225;SDS011;4154;48.810;9.012;2023-06-26T14:08:02;5.53;;;3.85;;
8225;SDS011;4154;48.810;9.012;2023-06-26T14:10:30;4.28;;;3.60;;
8225;SDS011;4154;48.810;9.012;2023-06-26T14:12:57;4.88;;;3.83;;
8225;SDS011;4154;48.810;9.012;2023-06-26T14:15:24;3.50;;;3.20;;
8225;SDS011;4154;48.810;9.012;2023-06-26T14:17:49;3.97;;;3.47;;
8225;SDS011;4154;48.810;9.012;2023-06-26T14:20:16;6.18;;;3.53;;
8225;SDS011;4154;48.810;9.012;2023-06-26T14:22:43;3.55;;;3.22;;
8225;SDS011;4154;48.810;9.012;2023-06-26T14:25:09;4.18;;;3.45;;
8225;SDS011;4154;48.810;9.012;2023-06-26T14:27:36;5.45;;;3.70;;
8225;SDS011;4154;48.810;9.012;2023-06-26T14:30:05;6.57;;;3.65;;
8225;SDS011;4154;48.810;9.012;2023-06-26T14:32:35;3.97;;;3.50;;
8225;SDS011;4154;48.810;9.012;2023-06-26T14:35:01;5.15;;;3.45;;
8225;SDS011;4154;48.810;9.012;2023-06-26T14:37:28;7.22;;;3.38;;
8225;SDS011;4154;48.810;9.012;2023-06-26T14:39:56;5.68;;;3.53;;
8225;SDS011;4154;48.810;9.012;2023-06-26T14:42:23;6.82;;;3.80;;
8225;SDS011;4154;48.810;9.012;2023-06-26T14:44:50;5.70;;;3.58;;
8225;SDS011;4154;48.810;9.012;2023-06-26T14:47:16;3.60;;;3.30;;
8225;SDS011;4154;48.810;9.012;2023-06-26T14:49:42;3.65;;;3.30;;
8225;SDS011;4154;48.810;9.012;2023-06-26T14:52:08;4.65;;;3.28;;
8225;SDS011;4154;48.810;9.012;2023-06-26T14:54:34;5.45;;;3.50;;
8225;SDS011;4154;48.810;9.012;2023-06-26T14:57:04;6.07;;;4.07;;
8225;SDS011;4154;48.810;9.012;2023-06-26T14:59:33;4.65;;;4.22;;
8225;SDS011;4154;48.810;9.012;2023-06-26T15:01:58;5.65;;;4.00;;
8225;SDS011;4154;48.810;9.012;2023-06-26T15:04:24;4.85;;;4.20;;
8225;SDS011;4154;48.810;9.012;2023-06-26T15:06:50;5.03;;;4.53;;
8225;SDS011;4154;48.810;9.012;2023-06-26T15:09:17;4.80;;;4.18;;
8225;SDS011;4154;48.810;9.012;2023-06-26T15:11:42;6.43;;;4.65;;
8225;SDS011;4154;48.810;9.012;2023-06-26T15:14:08;5.15;;;4.65;;
8225;SDS011;4154;48.810;9.012;2023-06-26T15:16:34;6.53;;;4.82;;
8225;SDS011;4154;48.810;9.012;2023-06-26T15:19:00;6.57;;;4.60;;
8225;SDS011;4154;48.810;9.012;2023-06-26T15:21:26;6.32;;;4.50;;
8225;SDS011;4154;48.810;9.012;2023-06-26T15:23:52;5.65;;;4.70;;
8225;SDS011;4154;48.810;9.012;2023-06-26T15:26:18;6.15;;;5.13;;
8225;SDS011;4154;48.810;9.012;2023-06-26T15:28:44;5.60;;;5.10;;
8225;SDS011;4154;48.810;9.012;2023-06-26T15:31:09;7.47;;;5.50;;
8225;SDS011;4154;48.810;9.012;2023-06-26T15:33:35;7.43;;;5.38;;
8225;SDS011;4154;48.810;9.012;2023-06-26T15:36:01;5.75;;;5.10;;
8225;SDS011;4154;48.810;9.012;2023-06-26T15:38:28;7.10;;;5.28;;
8225;SDS011;4154;48.810;9.012;2023-06-26T15:40:55;5.72;;;5.13;;
8225;SDS011;4154;48.810;9.012;2023-06-26T15:43:21;7.30;;;5.40;;
8225;SDS011;4154;48.810;9.012;2023-06-26T15:45:47;9.35;;;5.53;;